createdAt,value
2022-12-20T00:01:31.204Z,6.45
2022-12-20T00:04:00.027Z,6.50
2022-12-20T00:06:27.084Z,5.55
2022-12-20T00:08:58.460Z,6.85
2022-12-20T00:11:25.898Z,6.32
2022-12-20T00:13:52.792Z,6.13
2022-12-20T00:16:22.211Z,6.00
2022-12-20T00:18:52.945Z,6.53
2022-12-20T00:21:20.135Z,6.10
2022-12-20T00:23:47.222Z,5.68
2022-12-20T00:26:16.964Z,6.43
2022-12-20T00:28:45.370Z,6.43
2022-12-20T00:31:14.229Z,5.90
2022-12-20T00:33:44.762Z,5.88
2022-12-20T00:36:11.397Z,6.40
2022-12-20T00:38:38.089Z,5.82
2022-12-20T00:41:11.251Z,5.25
2022-12-20T00:43:38.845Z,5.55
2022-12-20T00:46:07.291Z,5.13
2022-12-20T00:48:34.819Z,5.93
2022-12-20T00:51:07.222Z,5.68
2022-12-20T00:53:34.220Z,5.72
2022-12-20T00:56:01.118Z,5.50
2022-12-20T00:58:27.961Z,5.00
2022-12-20T01:00:56.843Z,5.65
2022-12-20T01:03:24.628Z,4.82
2022-12-20T01:05:55.878Z,6.15
2022-12-20T01:08:24.159Z,5.78
2022-12-20T01:11:06.519Z,5.97
2022-12-20T01:13:35.434Z,6.43
2022-12-20T01:16:14.254Z,5.63
2022-12-20T01:18:41.010Z,6.07
2022-12-20T01:21:10.901Z,6.05
2022-12-20T01:23:38.063Z,6.20
2022-12-20T01:26:09.257Z,6.25
2022-12-20T01:28:37.233Z,6.20
2022-12-20T01:31:11.116Z,6.13
2022-12-20T01:33:38.019Z,6.05
2022-12-20T01:36:12.510Z,6.72
2022-12-20T01:38:39.326Z,6.72
2022-12-20T01:41:06.162Z,6.35
2022-12-20T01:43:54.158Z,6.47
2022-12-20T01:46:24.542Z,6.15
2022-12-20T01:49:10.873Z,5.47
2022-12-20T01:51:43.784Z,5.85
2022-12-20T01:54:18.977Z,5.70
2022-12-20T01:56:51.642Z,5.70
2022-12-20T01:59:18.975Z,5.57
2022-12-20T02:01:46.227Z,5.45
2022-12-20T02:04:13.175Z,5.32
2022-12-20T02:06:39.929Z,5.57
2022-12-20T02:09:08.438Z,6.22
2022-12-20T02:11:38.181Z,5.90
2022-12-20T02:14:43.196Z,5.47
2022-12-20T02:17:12.818Z,5.47
2022-12-20T02:20:11.551Z,5.43
2022-12-20T02:22:47.218Z,5.20
2022-12-20T02:25:31.223Z,5.60
2022-12-20T02:28:06.884Z,5.45
2022-12-20T02:30:38.157Z,5.72
2022-12-20T02:33:10.341Z,5.95
2022-12-20T02:35:38.582Z,5.80
2022-12-20T02:38:38.234Z,5.30
2022-12-20T02:41:27.795Z,6.28
2022-12-20T02:44:27.797Z,5.20
2022-12-20T02:46:58.367Z,5.60
2022-12-20T02:49:30.655Z,5.30
2022-12-20T02:52:00.539Z,5.70
2022-12-20T02:54:28.853Z,5.30
2022-12-20T02:57:05.286Z,5.20
2022-12-20T02:59:43.317Z,5.40
2022-12-20T03:02:12.710Z,5.53
2022-12-20T03:04:40.904Z,5.43
2022-12-20T03:07:13.500Z,5.50
2022-12-20T03:09:42.562Z,5.25
2022-12-20T03:12:11.728Z,5.60
2022-12-20T03:14:39.390Z,4.80
2022-12-20T03:17:06.300Z,5.03
2022-12-20T03:19:33.447Z,4.53
2022-12-20T03:22:00.142Z,4.85
2022-12-20T03:24:27.235Z,5.10
2022-12-20T03:26:53.887Z,5.38
2022-12-20T03:29:20.555Z,5.40
2022-12-20T03:31:47.259Z,4.95
2022-12-20T03:34:13.858Z,5.32
2022-12-20T03:36:40.469Z,5.70
2022-12-20T03:39:07.175Z,4.65
2022-12-20T03:41:33.823Z,4.68
2022-12-20T03:44:00.566Z,4.72
2022-12-20T03:46:27.954Z,4.88
2022-12-20T03:48:54.817Z,4.70
2022-12-20T03:51:21.496Z,4.03
2022-12-20T03:53:48.343Z,4.70
2022-12-20T03:56:14.983Z,5.00
2022-12-20T03:58:42.460Z,4.78
2022-12-20T04:01:27.886Z,4.35
2022-12-20T04:03:55.815Z,5.38
2022-12-20T04:06:23.239Z,4.72
2022-12-20T04:08:50.091Z,4.72
2022-12-20T04:11:16.842Z,5.47
2022-12-20T04:13:44.634Z,5.15
2022-12-20T04:16:12.976Z,4.93
2022-12-20T04:18:39.682Z,5.43
2022-12-20T04:21:09.885Z,4.55
2022-12-20T04:23:38.129Z,5.25
2022-12-20T04:26:08.610Z,4.78
2022-12-20T04:28:38.532Z,4.70
2022-12-20T04:31:05.406Z,5.22
2022-12-20T04:33:32.497Z,5.20
2022-12-20T04:35:59.206Z,5.57
2022-12-20T04:38:26.046Z,5.30
2022-12-20T04:40:54.790Z,5.70
2022-12-20T04:43:22.482Z,5.18
2022-12-20T04:45:51.278Z,4.95
2022-12-20T04:48:55.147Z,5.95
2022-12-20T04:51:06.070Z,6.40
2022-12-20T04:53:50.815Z,6.45
2022-12-20T04:56:27.607Z,6.35
2022-12-20T04:58:55.675Z,6.30
2022-12-20T05:01:23.193Z,5.72
2022-12-20T05:03:50.413Z,5.30
2022-12-20T05:06:17.912Z,5.63
2022-12-20T05:08:44.627Z,5.72
2022-12-20T05:11:11.658Z,5.80
2022-12-20T05:13:38.413Z,6.22
2022-12-20T05:16:05.688Z,6.53
2022-12-20T05:18:32.496Z,5.93
2022-12-20T05:21:19.524Z,6.28
2022-12-20T05:24:06.220Z,5.82
2022-12-20T05:26:37.591Z,6.45
2022-12-20T05:29:05.592Z,6.03
2022-12-20T05:31:32.631Z,5.53
2022-12-20T05:33:59.528Z,5.65
2022-12-20T05:36:26.222Z,5.63
2022-12-20T05:38:55.487Z,6.20
2022-12-20T05:41:27.153Z,5.80
2022-12-20T05:43:53.799Z,5.78
2022-12-20T05:46:20.557Z,6.32
2022-12-20T05:48:47.217Z,6.13
2022-12-20T05:51:13.815Z,6.43
2022-12-20T05:53:40.529Z,6.10
2022-12-20T05:56:08.210Z,7.18
2022-12-20T05:58:34.988Z,5.90
2022-12-20T06:01:07.619Z,6.25
2022-12-20T06:03:34.580Z,6.40
2022-12-20T06:06:01.577Z,6.40
2022-12-20T06:08:28.265Z,6.82
2022-12-20T06:10:55.012Z,6.90
2022-12-20T06:13:21.615Z,7.20
2022-12-20T06:15:48.232Z,7.53
2022-12-20T06:18:15.315Z,7.25
2022-12-20T06:20:41.951Z,7.75
2022-12-20T06:23:09.642Z,7.65
2022-12-20T06:25:37.060Z,7.63
2022-12-20T06:28:03.818Z,7.70
2022-12-20T06:30:34.033Z,7.13
2022-12-20T06:33:02.010Z,6.90
2022-12-20T06:35:29.355Z,7.13
2022-12-20T06:37:56.390Z,8.30
2022-12-20T06:40:23.465Z,6.78
2022-12-20T06:42:50.504Z,7.10
2022-12-20T06:45:17.266Z,7.40
2022-12-20T06:47:44.584Z,7.47
2022-12-20T06:50:11.478Z,6.55
2022-12-20T06:52:38.176Z,7.38
2022-12-20T06:55:05.232Z,7.15
2022-12-20T06:57:31.944Z,6.70
2022-12-20T06:59:58.890Z,7.30
2022-12-20T07:02:27.917Z,7.10
2022-12-20T07:04:55.247Z,6.90
2022-12-20T07:07:22.270Z,6.38
2022-12-20T07:09:49.085Z,6.82
2022-12-20T07:12:16.030Z,6.72
2022-12-20T07:14:42.687Z,6.07
2022-12-20T07:17:10.603Z,6.63
2022-12-20T07:19:37.423Z,6.45
2022-12-20T07:22:04.779Z,6.72
2022-12-20T07:24:31.936Z,7.63
2022-12-20T07:26:59.255Z,7.82
2022-12-20T07:29:26.195Z,7.70
2022-12-20T07:31:53.172Z,7.47
2022-12-20T07:34:20.056Z,8.07
2022-12-20T07:36:46.803Z,7.78
2022-12-20T07:39:13.611Z,7.28
2022-12-20T07:41:40.833Z,7.22
2022-12-20T07:44:07.586Z,6.82
2022-12-20T07:46:34.794Z,6.78
2022-12-20T07:49:01.683Z,6.18
2022-12-20T07:51:41.340Z,6.85
2022-12-20T07:54:36.862Z,6.18
2022-12-20T07:57:14.071Z,6.05
2022-12-20T07:59:43.750Z,5.88
2022-12-20T08:02:18.782Z,6.47
2022-12-20T08:04:45.521Z,6.20
2022-12-20T08:07:12.314Z,6.68
2022-12-20T08:09:43.878Z,6.32
2022-12-20T08:12:14.021Z,6.30
2022-12-20T08:14:41.015Z,6.93
2022-12-20T08:17:07.800Z,6.10
2022-12-20T08:19:34.777Z,6.07
2022-12-20T08:22:02.330Z,6.40
2022-12-20T08:24:29.019Z,6.25
2022-12-20T08:26:56.455Z,6.38
2022-12-20T08:29:23.228Z,6.18
2022-12-20T08:31:50.772Z,5.80
2022-12-20T08:34:18.155Z,5.78
2022-12-20T08:36:45.274Z,6.10
2022-12-20T08:39:11.893Z,5.65
2022-12-20T08:41:38.568Z,6.35
2022-12-20T08:44:06.621Z,5.75
2022-12-20T08:46:33.391Z,5.68
2022-12-20T08:49:00.093Z,6.10
2022-12-20T08:51:26.838Z,6.05
2022-12-20T08:53:53.587Z,6.10
2022-12-20T08:56:20.261Z,6.00
2022-12-20T08:58:47.466Z,6.20
2022-12-20T09:01:17.152Z,6.55
2022-12-20T09:03:44.420Z,7.45
2022-12-20T09:06:15.711Z,6.75
2022-12-20T09:08:42.714Z,6.80
2022-12-20T09:11:15.904Z,6.57
2022-12-20T09:13:45.033Z,6.68
2022-12-20T09:16:14.038Z,6.55
2022-12-20T09:18:41.378Z,7.50
2022-12-20T09:21:09.351Z,7.03
2022-12-20T09:23:36.932Z,7.43
2022-12-20T09:26:10.153Z,6.65
2022-12-20T09:28:37.195Z,6.57
2022-12-20T09:31:06.479Z,6.20
2022-12-20T09:33:34.840Z,6.20
2022-12-20T09:36:02.559Z,6.32
2022-12-20T09:38:31.130Z,5.95
2022-12-20T09:41:06.173Z,5.78
2022-12-20T09:43:33.892Z,5.38
2022-12-20T09:46:02.875Z,6.07
2022-12-20T09:48:33.608Z,5.22
2022-12-20T09:51:12.108Z,4.78
2022-12-20T09:54:00.685Z,4.90
2022-12-20T09:56:30.733Z,4.70
2022-12-20T09:59:18.611Z,4.50
2022-12-20T10:01:47.680Z,4.22
2022-12-20T10:04:25.140Z,4.28
2022-12-20T10:07:16.291Z,4.50
2022-12-20T10:10:20.873Z,4.45
2022-12-20T10:13:03.315Z,4.53
2022-12-20T10:15:38.516Z,3.95
2022-12-20T10:18:17.088Z,4.50
2022-12-20T10:21:08.738Z,4.15
2022-12-20T10:24:01.635Z,4.38
2022-12-20T10:26:29.251Z,4.07
2022-12-20T10:28:56.138Z,4.22
2022-12-20T10:31:23.489Z,3.50
2022-12-20T10:33:50.293Z,3.85
2022-12-20T10:36:35.401Z,3.35
2022-12-20T10:39:05.042Z,3.22
2022-12-20T10:41:49.042Z,2.45
2022-12-20T10:44:25.346Z,9.25
2022-12-20T10:46:53.997Z,4.40
2022-12-20T10:49:41.033Z,4.53
2022-12-20T10:52:07.840Z,3.63
2022-12-20T10:54:37.501Z,3.47
2022-12-20T10:57:21.132Z,3.10
2022-12-20T10:59:57.755Z,3.55
2022-12-20T11:02:40.785Z,2.70
2022-12-20T11:05:11.927Z,2.75
2022-12-20T11:10:47.310Z,3.03
2022-12-20T11:13:25.526Z,3.30
2022-12-20T11:15:57.080Z,3.20
2022-12-20T11:18:33.970Z,2.80
2022-12-20T11:21:00.836Z,3.15
2022-12-20T11:23:27.481Z,3.20
2022-12-20T11:26:20.125Z,2.83
2022-12-20T11:29:22.999Z,2.78
2022-12-20T11:32:23.436Z,4.10
2022-12-20T11:34:58.956Z,14.90
2022-12-20T11:37:27.735Z,34.63
2022-12-20T11:40:20.581Z,34.50
2022-12-20T11:42:53.376Z,8.98
2022-12-20T11:45:46.913Z,17.45
2022-12-20T11:48:52.086Z,6.55
2022-12-20T11:51:26.587Z,5.93
2022-12-20T11:54:21.866Z,5.90
2022-12-20T11:56:52.719Z,5.60
2022-12-20T11:59:44.991Z,5.82
2022-12-20T12:02:14.956Z,5.40
2022-12-20T12:04:47.196Z,5.90
2022-12-20T12:07:24.600Z,7.43
2022-12-20T12:09:53.945Z,7.57
2022-12-20T12:12:29.135Z,6.53
2022-12-20T12:15:23.829Z,6.88
2022-12-20T12:18:20.713Z,6.25
2022-12-20T12:21:08.951Z,6.78
2022-12-20T12:23:45.772Z,5.57
2022-12-20T12:26:20.072Z,5.88
2022-12-20T12:28:53.775Z,7.10
2022-12-20T12:31:38.490Z,6.45
2022-12-20T12:34:12.057Z,6.07
2022-12-20T12:37:06.752Z,5.50
2022-12-20T12:40:00.319Z,5.82
2022-12-20T12:42:57.925Z,6.22
2022-12-20T12:45:29.041Z,6.32
2022-12-20T12:48:02.919Z,6.65
2022-12-20T12:50:35.146Z,6.93
2022-12-20T12:53:22.000Z,7.07
2022-12-20T12:56:07.304Z,9.43
2022-12-20T12:58:46.482Z,8.63
2022-12-20T13:01:47.830Z,8.70
2022-12-20T13:04:20.638Z,9.80
2022-12-20T13:06:47.273Z,9.45
2022-12-20T13:09:22.468Z,10.18
2022-12-20T13:11:55.550Z,7.60
2022-12-20T13:14:27.604Z,7.22
2022-12-20T13:17:22.202Z,7.28
2022-12-20T13:19:54.789Z,8.00
2022-12-20T13:22:25.938Z,7.75
2022-12-20T13:25:02.946Z,8.00
2022-12-20T13:27:32.902Z,8.00
2022-12-20T13:30:08.047Z,10.13
2022-12-20T13:32:47.243Z,7.82
2022-12-20T13:35:26.389Z,8.20
2022-12-20T13:38:07.722Z,8.43
2022-12-20T13:40:50.296Z,9.13
2022-12-20T13:43:28.073Z,8.00
2022-12-20T13:46:09.949Z,8.77
2022-12-20T13:48:47.772Z,8.40
2022-12-20T13:51:26.076Z,8.35
2022-12-20T13:54:00.531Z,7.43
2022-12-20T13:56:27.166Z,7.15
2022-12-20T13:58:57.200Z,9.00
2022-12-20T14:01:25.964Z,9.02
2022-12-20T14:03:53.628Z,10.00
2022-12-20T14:06:26.515Z,9.13
2022-12-20T14:08:54.291Z,8.38
2022-12-20T14:11:23.961Z,8.00
2022-12-20T14:14:04.856Z,7.88
2022-12-20T14:16:33.467Z,8.30
2022-12-20T14:19:05.779Z,8.05
2022-12-20T14:21:37.120Z,8.00
2022-12-20T14:24:04.389Z,8.07
2022-12-20T14:26:47.719Z,7.68
2022-12-20T14:29:20.377Z,8.02
2022-12-20T14:31:48.824Z,9.55
2022-12-20T14:34:29.868Z,8.50
2022-12-20T14:37:33.535Z,7.88
2022-12-20T14:40:09.505Z,8.27
2022-12-20T14:42:39.395Z,8.68
2022-12-20T14:45:09.366Z,8.38
2022-12-20T14:47:37.554Z,9.43
2022-12-20T14:50:17.221Z,9.55
2022-12-20T14:52:45.635Z,7.85
2022-12-20T14:55:16.593Z,14.00
2022-12-20T14:57:55.551Z,8.93
2022-12-20T15:00:31.489Z,8.93
2022-12-20T15:03:13.008Z,9.63
2022-12-20T15:05:45.563Z,8.93
2022-12-20T15:08:23.329Z,9.38
2022-12-20T15:11:08.530Z,10.73
2022-12-20T15:13:42.007Z,11.80
2022-12-20T15:16:18.271Z,13.60
2022-12-20T15:18:49.300Z,10.75
2022-12-20T15:21:22.465Z,12.40
2022-12-20T15:23:52.022Z,12.60
2022-12-20T15:26:21.908Z,11.45
2022-12-20T15:28:48.692Z,11.98
2022-12-20T15:31:18.326Z,19.58
2022-12-20T15:33:45.855Z,14.15
2022-12-20T15:36:22.433Z,14.02
2022-12-20T15:41:38.829Z,11.70
2022-12-20T15:44:07.675Z,12.30
2022-12-20T15:46:34.535Z,12.10
2022-12-20T15:49:01.427Z,12.68
2022-12-20T15:51:32.055Z,12.23
2022-12-20T15:54:00.085Z,10.77
2022-12-20T15:56:28.243Z,12.55
2022-12-20T15:58:55.411Z,11.73
2022-12-20T16:01:27.356Z,12.90
2022-12-20T16:03:54.365Z,21.33
2022-12-20T16:06:21.291Z,13.55
2022-12-20T16:08:47.948Z,14.23
2022-12-20T16:11:22.708Z,12.70
2022-12-20T16:13:50.416Z,13.02
2022-12-20T16:16:19.468Z,14.70
2022-12-20T16:18:46.365Z,14.15
2022-12-20T16:21:19.051Z,14.63
2022-12-20T16:23:46.997Z,14.40
2022-12-20T16:26:19.715Z,13.95
2022-12-20T16:28:47.877Z,15.05
2022-12-20T16:31:40.612Z,13.55
2022-12-20T16:34:13.414Z,15.73
2022-12-20T16:36:40.203Z,14.63
2022-12-20T16:39:06.885Z,14.55
2022-12-20T16:41:33.974Z,15.80
2022-12-20T16:44:02.940Z,14.98
2022-12-20T16:46:31.751Z,15.15
2022-12-20T16:49:00.572Z,15.07
2022-12-20T16:51:39.417Z,15.95
2022-12-20T16:54:22.992Z,17.08
2022-12-20T16:56:55.945Z,16.10
2022-12-20T16:59:23.963Z,15.85
2022-12-20T17:01:53.467Z,16.77
2022-12-20T17:04:21.328Z,15.93
2022-12-20T17:06:48.551Z,17.13
2022-12-20T17:12:00.628Z,19.00
2022-12-20T17:14:30.959Z,16.52
2022-12-20T17:16:57.672Z,16.92
2022-12-20T17:19:24.367Z,17.60
2022-12-20T17:24:35.529Z,19.10
2022-12-20T17:27:02.257Z,19.60
2022-12-20T17:29:28.856Z,19.02
2022-12-20T17:31:55.648Z,20.10
2022-12-20T17:34:28.234Z,20.65
2022-12-20T17:36:57.084Z,19.88
2022-12-20T17:39:25.324Z,19.58
2022-12-20T17:41:53.986Z,18.77
2022-12-20T17:44:26.152Z,20.60
2022-12-20T17:46:53.950Z,21.40
2022-12-20T17:49:21.086Z,20.40
2022-12-20T17:51:47.657Z,28.42
2022-12-20T17:54:20.694Z,23.67
2022-12-20T17:56:47.743Z,26.48
2022-12-20T17:59:14.554Z,23.50
2022-12-20T18:01:43.105Z,24.88
2022-12-20T18:04:12.313Z,31.73
2022-12-20T18:06:40.766Z,26.75
2022-12-20T18:09:13.564Z,23.98
2022-12-20T18:11:40.184Z,23.30
2022-12-20T18:14:13.941Z,24.05
2022-12-20T18:16:41.570Z,23.05
2022-12-20T18:19:14.360Z,23.73
2022-12-20T18:21:41.710Z,22.13
2022-12-20T18:24:11.930Z,22.33
2022-12-20T18:26:38.935Z,25.98
2022-12-20T18:29:05.601Z,23.65
2022-12-20T18:31:34.630Z,29.45
2022-12-20T18:34:02.071Z,26.98
2022-12-20T18:36:34.570Z,26.05
2022-12-20T18:39:03.014Z,22.83
2022-12-20T18:41:30.943Z,25.80
2022-12-20T18:44:03.576Z,27.25
2022-12-20T18:46:30.353Z,22.38
2022-12-20T18:48:58.775Z,24.92
2022-12-20T18:51:30.877Z,24.98
2022-12-20T18:53:59.121Z,25.00
2022-12-20T18:56:31.888Z,25.98
2022-12-20T18:59:06.244Z,25.63
2022-12-20T19:01:37.596Z,23.65
2022-12-20T19:04:06.211Z,24.65
2022-12-20T19:06:33.542Z,25.00
2022-12-20T19:09:01.465Z,43.42
2022-12-20T19:11:29.766Z,24.67
2022-12-20T19:13:56.779Z,26.35
2022-12-20T19:16:26.527Z,24.45
2022-12-20T19:18:53.463Z,27.58
2022-12-20T19:21:25.570Z,29.92
2022-12-20T19:23:55.554Z,27.20
2022-12-20T19:26:23.867Z,26.90
2022-12-20T19:28:51.126Z,31.95
2022-12-20T19:31:23.604Z,24.90
2022-12-20T19:33:53.278Z,31.45
2022-12-20T19:36:24.921Z,23.70
2022-12-20T19:38:57.820Z,25.10
2022-12-20T19:41:28.160Z,26.63
2022-12-20T19:43:55.761Z,27.80
2022-12-20T19:46:28.870Z,29.92
2022-12-20T19:48:57.873Z,46.95
2022-12-20T19:51:26.182Z,39.88
2022-12-20T19:53:53.797Z,32.78
2022-12-20T19:56:23.467Z,24.77
2022-12-20T19:58:50.227Z,27.30
2022-12-20T20:01:18.081Z,26.27
2022-12-20T20:03:45.639Z,26.48
2022-12-20T20:06:12.992Z,24.73
2022-12-20T20:08:40.226Z,25.83
2022-12-20T20:11:09.856Z,25.05
2022-12-20T20:13:37.729Z,24.10
2022-12-20T20:16:04.807Z,24.10
2022-12-20T20:18:35.436Z,24.77
2022-12-20T20:21:07.175Z,24.67
2022-12-20T20:23:34.198Z,24.38
2022-12-20T20:26:01.131Z,26.10
2022-12-20T20:28:31.913Z,24.73
2022-12-20T20:31:00.770Z,25.75
2022-12-20T20:33:27.913Z,25.02
2022-12-20T20:35:56.649Z,24.77
2022-12-20T20:38:23.972Z,23.10
2022-12-20T20:40:51.268Z,23.85
2022-12-20T20:43:18.681Z,23.95
2022-12-20T20:45:45.312Z,24.50
2022-12-20T20:48:12.053Z,23.52
2022-12-20T20:50:38.714Z,22.55
2022-12-20T20:53:06.927Z,22.77
2022-12-20T20:55:34.851Z,22.20
2022-12-20T20:58:01.612Z,28.17
2022-12-20T21:00:29.535Z,29.05
2022-12-20T21:02:56.503Z,25.10
2022-12-20T21:08:10.079Z,22.55
2022-12-20T21:10:37.281Z,24.67
2022-12-20T21:13:04.916Z,22.98
2022-12-20T21:15:32.963Z,26.08
2022-12-20T21:17:59.601Z,25.70
2022-12-20T21:20:26.692Z,22.42
2022-12-20T21:22:53.405Z,22.10
2022-12-20T21:25:19.968Z,24.35
2022-12-20T21:27:46.548Z,21.65
2022-12-20T21:30:13.349Z,23.00
2022-12-20T21:32:39.899Z,21.00
2022-12-20T21:35:06.865Z,21.80
2022-12-20T21:37:33.482Z,21.13
2022-12-20T21:40:00.047Z,22.45
2022-12-20T21:42:26.656Z,23.73
2022-12-20T21:44:53.355Z,21.88
2022-12-20T21:47:20.081Z,20.23
2022-12-20T21:49:46.682Z,19.63
2022-12-20T21:52:13.325Z,34.63
2022-12-20T21:54:40.923Z,21.92
2022-12-20T21:57:07.506Z,20.88
2022-12-20T21:59:34.063Z,30.55
2022-12-20T22:02:00.940Z,21.55
2022-12-20T22:04:28.226Z,21.20
2022-12-20T22:07:02.634Z,19.73
2022-12-20T22:09:38.042Z,20.55
2022-12-20T22:12:10.752Z,19.42
2022-12-20T22:14:41.602Z,19.63
2022-12-20T22:17:08.188Z,19.35
2022-12-20T22:19:36.149Z,20.25
2022-12-20T22:22:13.521Z,21.42
2022-12-20T22:24:48.669Z,20.55
2022-12-20T22:27:15.290Z,24.42
2022-12-20T22:29:55.074Z,20.33
2022-12-20T22:32:27.899Z,20.80
2022-12-20T22:34:57.641Z,26.80
2022-12-20T22:37:24.261Z,21.30
2022-12-20T22:39:50.956Z,20.75
2022-12-20T22:42:18.342Z,37.35
2022-12-20T22:44:44.978Z,21.27
2022-12-20T22:47:11.591Z,24.48
2022-12-20T22:49:38.231Z,22.17
2022-12-20T22:52:07.725Z,25.00
2022-12-20T22:54:35.171Z,21.30
2022-12-20T22:57:01.802Z,24.52
2022-12-20T22:59:28.357Z,20.52
2022-12-20T23:01:55.127Z,21.23
2022-12-20T23:04:21.878Z,35.42
2022-12-20T23:06:48.554Z,22.25
2022-12-20T23:09:15.234Z,21.52
2022-12-20T23:12:00.549Z,21.20
2022-12-20T23:14:45.633Z,21.48
2022-12-20T23:17:12.475Z,20.77
2022-12-20T23:19:57.695Z,20.20
2022-12-20T23:22:40.542Z,21.33
2022-12-20T23:25:16.245Z,21.20
2022-12-20T23:27:44.769Z,20.77
2022-12-20T23:30:14.518Z,21.63
2022-12-20T23:32:44.759Z,21.15
2022-12-20T23:35:17.302Z,20.90
2022-12-20T23:37:46.032Z,21.45
2022-12-20T23:40:13.687Z,21.00
2022-12-20T23:42:41.107Z,20.35
2022-12-20T23:45:08.625Z,21.10
2022-12-20T23:47:35.420Z,21.65
2022-12-20T23:50:02.471Z,21.85
2022-12-20T23:52:29.363Z,21.35
2022-12-20T23:54:56.027Z,22.00
2022-12-20T23:57:22.657Z,19.02
2022-12-20T23:59:49.424Z,19.80
